Time;durP1;ratioP1;P1;durP2;ratioP2;P2;SDS_P1;SDS_P2;PMS_P1;PMS_P2;Temp;Humidity;BMP_temperature;BMP_pressure;BME280_temperature;BME280_humidity;BME280_pressure;Samples;Min_cycle;Max_cycle;Signal;HPM_P1;HPM_P2
2023/07/17 00:00:24;;;;;;;4.65;2.00;;;17.30;99.90;;;;;;4953435;28;20475;-77
2023/07/17 00:02:49;;;;;;;6.55;1.48;;;17.30;99.90;;;;;;4970796;28;20109;-78
2023/07/17 00:05:16;;;;;;;3.85;1.42;;;17.20;99.90;;;;;;4953147;28;20117;-78
2023/07/17 00:07:42;;;;;;;1.55;1.45;;;17.30;99.90;;;;;;4953523;28;20121;-78
2023/07/17 00:10:11;;;;;;;1.38;1.15;;;17.30;99.90;;;;;;4970275;28;20124;-78
2023/07/17 00:12:37;;;;;;;1.33;1.00;;;17.30;99.90;;;;;;4953428;28;20151;-78
2023/07/17 00:15:06;;;;;;;2.88;1.67;;;17.20;99.90;;;;;;4970746;28;20472;-78
2023/07/17 00:17:35;;;;;;;3.58;1.65;;;17.20;99.90;;;;;;4970553;28;20159;-78
2023/07/17 00:20:02;;;;;;;7.75;2.17;;;17.20;99.90;;;;;;4970606;28;20404;-78
2023/07/17 00:22:28;;;;;;;2.15;1.10;;;17.20;99.90;;;;;;4970834;28;20457;-79
2023/07/17 00:24:54;;;;;;;1.90;1.40;;;17.20;99.90;;;;;;4953521;28;20031;-79
2023/07/17 00:27:21;;;;;;;2.60;1.30;;;17.20;99.90;;;;;;4953387;28;20038;-78
2023/07/17 00:29:46;;;;;;;5.97;1.30;;;17.20;99.90;;;;;;4953470;28;20027;-79
2023/07/17 00:32:13;;;;;;;1.33;1.20;;;17.10;99.90;;;;;;4953454;28;20029;-78
2023/07/17 00:34:40;;;;;;;4.20;1.77;;;17.10;99.90;;;;;;4952885;28;20022;-79
2023/07/17 00:37:06;;;;;;;5.45;1.98;;;17.00;99.90;;;;;;4970540;28;20046;-79
2023/07/17 00:39:32;;;;;;;1.48;1.30;;;17.00;99.90;;;;;;4953393;28;20106;-78
2023/07/17 00:41:59;;;;;;;2.70;1.30;;;17.00;99.90;;;;;;4953212;28;20497;-79
2023/07/17 00:44:24;;;;;;;7.55;2.35;;;17.00;99.90;;;;;;4970816;28;20070;-79
2023/07/17 00:46:53;;;;;;;4.60;1.33;;;17.00;99.90;;;;;;4953410;28;20023;-80
2023/07/17 00:49:22;;;;;;;3.97;1.80;;;16.90;99.90;;;;;;4953245;28;20110;-78
2023/07/17 00:51:48;;;;;;;4.53;1.90;;;16.90;99.90;;;;;;4970504;28;20038;-80
2023/07/17 00:54:14;;;;;;;1.70;1.60;;;16.80;99.90;;;;;;4970767;28;20286;-80
2023/07/17 00:56:42;;;;;;;2.63;1.45;;;16.80;99.90;;;;;;4970544;28;20096;-80
2023/07/17 00:59:08;;;;;;;2.45;1.17;;;16.90;99.90;;;;;;4953271;28;20050;-79
2023/07/17 01:01:34;;;;;;;4.60;1.40;;;16.90;99.90;;;;;;4953326;28;20077;-80
2023/07/17 01:04:04;;;;;;;6.03;1.65;;;16.90;99.90;;;;;;4970302;28;20118;-80
2023/07/17 01:06:30;;;;;;;2.92;1.73;;;16.90;99.90;;;;;;4953046;28;20038;-79
2023/07/17 01:08:57;;;;;;;1.58;1.13;;;17.00;99.90;;;;;;4970778;28;20479;-79
2023/07/17 01:11:23;;;;;;;3.00;1.30;;;16.90;99.90;;;;;;4970249;28;20039;-79
2023/07/17 01:13:50;;;;;;;8.10;2.10;;;16.80;99.90;;;;;;4952943;28;20034;-79
2023/07/17 01:16:17;;;;;;;2.20;0.95;;;16.80;99.90;;;;;;4970424;28;20425;-79
2023/07/17 01:18:42;;;;;;;3.90;1.20;;;16.90;99.90;;;;;;4952409;28;20023;-78
2023/07/17 01:21:11;;;;;;;2.75;1.65;;;16.90;99.90;;;;;;4952576;28;20519;-79
2023/07/17 01:23:37;;;;;;;2.80;1.83;;;16.80;99.90;;;;;;4973133;28;20301;-79
2023/07/17 01:26:17;;;;;;;3.50;1.85;;;16.90;99.90;;;;;;4974075;28;20274;-78
2023/07/17 01:28:44;;;;;;;3.45;1.48;;;16.90;99.90;;;;;;4956629;28;20315;-79
2023/07/17 01:31:10;;;;;;;4.97;1.50;;;16.90;99.90;;;;;;4956564;28;20030;-78
2023/07/17 01:33:36;;;;;;;3.30;1.35;;;16.90;99.90;;;;;;4956071;28;20026;-78
2023/07/17 01:36:03;;;;;;;3.53;1.83;;;16.90;99.90;;;;;;4956444;28;20023;-79
2023/07/17 01:38:29;;;;;;;2.10;1.30;;;17.00;99.90;;;;;;4956109;28;20054;-78
2023/07/17 01:40:55;;;;;;;2.03;1.38;;;17.10;99.90;;;;;;4955935;28;20031;-79
2023/07/17 01:43:21;;;;;;;1.98;1.15;;;17.10;99.90;;;;;;4973405;28;20053;-78
2023/07/17 01:45:46;;;;;;;2.40;1.90;;;17.10;99.90;;;;;;4956472;28;20498;-78
2023/07/17 01:48:14;;;;;;;2.28;1.23;;;17.10;99.90;;;;;;4973731;28;20081;-79
2023/07/17 01:50:41;;;;;;;1.67;1.17;;;17.10;99.90;;;;;;4955674;28;20029;-79
2023/07/17 01:53:06;;;;;;;1.02;1.00;;;17.00;99.90;;;;;;4955933;28;20031;-78
2023/07/17 01:55:32;;;;;;;4.35;1.45;;;17.00;99.90;;;;;;4973475;28;20023;-79
2023/07/17 01:57:58;;;;;;;4.28;1.50;;;17.00;99.90;;;;;;4973378;28;20119;-79
2023/07/17 02:00:24;;;;;;;1.58;1.48;;;17.00;99.90;;;;;;4956031;28;20048;-79
2023/07/17 02:02:50;;;;;;;2.28;1.75;;;16.90;99.90;;;;;;4955579;28;20471;-79
2023/07/17 02:05:16;;;;;;;4.10;1.27;;;16.90;99.90;;;;;;4955692;28;20086;-79
2023/07/17 02:07:42;;;;;;;2.42;1.33;;;16.90;99.90;;;;;;4955400;28;20507;-79
2023/07/17 02:10:08;;;;;;;4.28;2.13;;;17.00;99.90;;;;;;4972877;28;20033;-79
2023/07/17 02:12:34;;;;;;;3.20;2.15;;;17.00;99.90;;;;;;4955702;28;20038;-79
2023/07/17 02:14:59;;;;;;;2.28;1.65;;;17.00;99.90;;;;;;4973059;28;20386;-79
2023/07/17 02:17:25;;;;;;;5.88;1.60;;;17.00;99.90;;;;;;4973047;28;20118;-79
2023/07/17 02:19:51;;;;;;;4.97;1.85;;;17.10;99.90;;;;;;4972971;28;20454;-79
2023/07/17 02:22:16;;;;;;;6.05;1.50;;;17.10;99.90;;;;;;4955471;28;20054;-79
2023/07/17 02:24:42;;;;;;;2.63;1.92;;;17.10;99.90;;;;;;4972811;28;20019;-78
2023/07/17 02:27:08;;;;;;;3.70;1.35;;;17.10;99.90;;;;;;4955191;28;20537;-78
2023/07/17 02:29:36;;;;;;;2.40;2.08;;;17.10;99.90;;;;;;4955147;28;20383;-79
2023/07/17 02:32:01;;;;;;;2.22;1.40;;;17.10;99.90;;;;;;4955293;28;20394;-79
2023/07/17 02:34:27;;;;;;;4.95;1.40;;;17.20;99.90;;;;;;4954660;28;20105;-79
2023/07/17 02:36:53;;;;;;;5.72;1.45;;;17.30;99.90;;;;;;4955448;28;20019;-78
2023/07/17 02:39:20;;;;;;;2.35;1.52;;;17.30;99.90;;;;;;4955513;28;20022;-79
2023/07/17 02:41:46;;;;;;;3.15;1.33;;;17.40;99.90;;;;;;4955168;28;20019;-79
2023/07/17 02:44:13;;;;;;;5.15;2.47;;;17.40;99.90;;;;;;4972109;28;20162;-78
2023/07/17 02:46:39;;;;;;;3.65;1.88;;;17.40;99.90;;;;;;4954779;28;20023;-79
2023/07/17 02:49:06;;;;;;;4.35;1.92;;;17.40;99.90;;;;;;4954812;28;20034;-79
2023/07/17 02:51:32;;;;;;;2.85;1.50;;;17.40;99.90;;;;;;4972172;28;20061;-79
2023/07/17 02:53:58;;;;;;;5.18;2.25;;;17.50;99.90;;;;;;4954982;28;20082;-79
2023/07/17 02:56:23;;;;;;;2.67;1.52;;;17.50;99.90;;;;;;4954971;28;20092;-79
2023/07/17 02:58:53;;;;;;;3.17;1.50;;;17.60;99.90;;;;;;4972284;28;20030;-79
2023/07/17 03:01:20;;;;;;;;;;;17.70;99.90;;;;;;4955034;28;20493;-79
2023/07/17 03:03:46;;;;;;;2.90;1.30;;;17.70;99.90;;;;;;4954592;28;19906;-79
2023/07/17 03:06:12;;;;;;;3.72;2.00;;;17.70;99.90;;;;;;4971584;28;20502;-79
2023/07/17 03:08:37;;;;;;;2.15;1.30;;;17.60;99.90;;;;;;4954654;28;20039;-79
2023/07/17 03:11:03;;;;;;;2.15;1.42;;;17.70;99.90;;;;;;4972381;28;20023;-78
2023/07/17 03:13:29;;;;;;;3.65;1.92;;;17.60;99.90;;;;;;4954448;28;20294;-78
2023/07/17 03:15:58;;;;;;;2.60;1.55;;;17.70;99.90;;;;;;4954808;28;20034;-78
2023/07/17 03:18:27;;;;;;;1.50;1.40;;;17.60;99.90;;;;;;4954271;28;20488;-79
2023/07/17 03:20:54;;;;;;;2.37;1.50;;;17.60;99.90;;;;;;4953831;28;20416;-79
2023/07/17 03:23:20;;;;;;;4.95;2.13;;;17.70;99.90;;;;;;4953976;28;20310;-79
2023/07/17 03:25:46;;;;;;;1.85;1.42;;;17.70;99.90;;;;;;4971856;28;20053;-78
2023/07/17 03:28:12;;;;;;;3.75;1.50;;;17.70;99.90;;;;;;4954219;28;20081;-79
2023/07/17 03:30:39;;;;;;;5.53;2.22;;;17.70;99.90;;;;;;4971972;28;20019;-79
2023/07/17 03:33:05;;;;;;;3.38;1.48;;;17.60;99.90;;;;;;4971494;28;20035;-79
2023/07/17 03:35:30;;;;;;;3.13;1.42;;;17.70;99.90;;;;;;4971001;28;20026;-79
2023/07/17 03:37:56;;;;;;;1.95;1.73;;;17.70;99.90;;;;;;4954255;28;20034;-79
2023/07/17 03:40:21;;;;;;;3.28;2.08;;;17.70;99.90;;;;;;4971371;28;20400;-79
2023/07/17 03:42:47;;;;;;;3.72;1.52;;;17.70;99.90;;;;;;4954182;28;20023;-78
2023/07/17 03:45:13;;;;;;;2.25;1.33;;;17.70;99.90;;;;;;4953200;28;20027;-78
2023/07/17 03:47:38;;;;;;;5.35;1.00;;;17.60;99.90;;;;;;4954102;28;20550;-79
2023/07/17 03:50:04;;;;;;;3.72;2.05;;;17.50;99.90;;;;;;4953988;28;20019;-78
2023/07/17 03:52:30;;;;;;;4.97;1.80;;;17.50;99.90;;;;;;4953529;28;20027;-79
2023/07/17 03:54:56;;;;;;;1.63;1.13;;;17.50;99.90;;;;;;4971217;28;20072;-78
2023/07/17 03:57:22;;;;;;;5.20;2.00;;;17.60;99.90;;;;;;4971066;28;20031;-78
2023/07/17 03:59:53;;;;;;;1.80;1.70;;;17.60;99.90;;;;;;4970828;28;20047;-78
2023/07/17 04:02:19;;;;;;;1.73;1.33;;;17.70;99.90;;;;;;4971138;28;20026;-78
2023/07/17 04:04:45;;;;;;;3.58;1.85;;;17.50;99.90;;;;;;4953457;28;20023;-78
2023/07/17 04:07:11;;;;;;;4.55;1.73;;;17.50;99.90;;;;;;4970864;28;20039;-78
2023/07/17 04:09:37;;;;;;;1.55;1.20;;;17.50;99.90;;;;;;4970684;28;20451;-79
2023/07/17 04:12:04;;;;;;;8.55;2.17;;;17.50;99.90;;;;;;4953523;28;20109;-79
2023/07/17 04:14:31;;;;;;;5.22;2.08;;;17.50;99.90;;;;;;4953396;28;20049;-78
2023/07/17 04:16:57;;;;;;;7.78;1.95;;;17.60;99.90;;;;;;4953400;28;20101;-78
2023/07/17 04:19:22;;;;;;;1.88;1.40;;;17.60;99.90;;;;;;4970173;28;20491;-79
2023/07/17 04:21:48;;;;;;;3.70;1.33;;;17.70;99.90;;;;;;4970417;28;20122;-80
2023/07/17 04:24:14;;;;;;;3.72;1.88;;;17.70;99.90;;;;;;4970722;28;20065;-79
2023/07/17 04:26:39;;;;;;;3.95;1.30;;;17.80;99.90;;;;;;4953512;28;20180;-79
2023/07/17 04:29:06;;;;;;;1.80;1.15;;;17.90;99.90;;;;;;4953273;28;20039;-79
2023/07/17 04:31:32;;;;;;;1.83;1.30;;;17.80;99.90;;;;;;4970695;28;20038;-79
2023/07/17 04:33:58;;;;;;;1.75;1.38;;;17.70;99.90;;;;;;4970473;28;20470;-78
2023/07/17 04:36:24;;;;;;;5.38;2.15;;;17.70;99.90;;;;;;4952797;28;20239;-80
2023/07/17 04:38:49;;;;;;;3.00;1.40;;;17.60;99.90;;;;;;4952954;28;20070;-79
2023/07/17 04:41:16;;;;;;;1.90;1.20;;;17.60;99.90;;;;;;4970331;28;20085;-78
2023/07/17 04:43:42;;;;;;;1.60;1.35;;;17.60;99.90;;;;;;4952968;28;20435;-78
2023/07/17 04:46:07;;;;;;;2.42;1.55;;;17.60;99.90;;;;;;4970513;28;20023;-78
2023/07/17 04:48:33;;;;;;;3.00;1.30;;;17.70;99.90;;;;;;4952954;28;20094;-78
2023/07/17 04:50:59;;;;;;;1.48;1.15;;;17.80;99.90;;;;;;4969744;28;20163;-80
2023/07/17 04:53:24;;;;;;;2.65;1.73;;;17.80;99.90;;;;;;4953018;28;20027;-79
2023/07/17 04:55:50;;;;;;;2.47;1.40;;;17.80;99.90;;;;;;4970763;28;20049;-78
2023/07/17 04:58:18;;;;;;;1.15;1.10;;;17.70;99.90;;;;;;4956735;28;20038;-78
2023/07/17 05:00:46;;;;;;;2.28;1.10;;;17.70;99.90;;;;;;4956913;28;20019;-79
2023/07/17 05:03:12;;;;;;;1.95;1.75;;;17.80;99.90;;;;;;4974413;28;20042;-79
2023/07/17 05:05:39;;;;;;;5.68;1.77;;;17.80;99.90;;;;;;4956710;28;20030;-78
2023/07/17 05:08:05;;;;;;;2.40;1.50;;;17.90;99.90;;;;;;4956619;28;20494;-79
2023/07/17 05:10:31;;;;;;;1.83;1.45;;;18.10;99.90;;;;;;4956427;28;20046;-79
2023/07/17 05:12:59;;;;;;;3.13;1.27;;;18.20;99.90;;;;;;4956586;28;20081;-78
2023/07/17 05:15:24;;;;;;;1.55;1.45;;;18.30;99.90;;;;;;4973562;28;20532;-78
2023/07/17 05:17:50;;;;;;;5.30;1.88;;;18.50;99.90;;;;;;4974084;28;20035;-78
2023/07/17 05:20:15;;;;;;;1.48;1.38;;;18.70;99.90;;;;;;4956249;28;20054;-78
2023/07/17 05:22:41;;;;;;;4.43;1.77;;;18.80;99.90;;;;;;4973741;28;20499;-79
2023/07/17 05:25:07;;;;;;;1.63;1.45;;;19.00;99.90;;;;;;4973753;28;20026;-78
2023/07/17 05:27:32;;;;;;;3.80;1.98;;;19.00;99.90;;;;;;4973539;28;20039;-78
2023/07/17 05:29:58;;;;;;;3.38;1.63;;;19.10;99.90;;;;;;4955976;28;20049;-78
2023/07/17 05:32:24;;;;;;;3.45;2.10;;;19.20;99.90;;;;;;4973886;28;20464;-78
2023/07/17 05:34:50;;;;;;;1.60;1.50;;;19.40;99.90;;;;;;4956150;28;20030;-79
2023/07/17 05:37:18;;;;;;;2.33;1.60;;;19.40;99.90;;;;;;4955799;28;20023;-78
2023/07/17 05:39:44;;;;;;;1.85;1.75;;;19.60;99.90;;;;;;4956236;28;20498;-78
2023/07/17 05:42:10;;;;;;;3.20;2.08;;;19.80;99.90;;;;;;4956194;28;20019;-79
2023/07/17 05:44:35;;;;;;;3.25;1.25;;;19.60;99.90;;;;;;4956290;28;20027;-78
2023/07/17 05:47:01;;;;;;;4.63;1.63;;;19.70;99.90;;;;;;4973437;28;20381;-79
2023/07/17 05:49:27;;;;;;;1.80;1.48;;;20.00;99.90;;;;;;4955951;28;20130;-78
2023/07/17 05:51:52;;;;;;;3.47;1.65;;;20.10;99.90;;;;;;4955770;28;20364;-78
2023/07/17 05:54:18;;;;;;;3.50;1.80;;;20.30;99.90;;;;;;4955992;28;20551;-78
2023/07/17 05:56:43;;;;;;;2.83;1.80;;;20.40;99.90;;;;;;4956069;28;20110;-78
2023/07/17 05:59:09;;;;;;;2.45;2.22;;;20.50;99.90;;;;;;4956162;28;20372;-78
2023/07/17 06:01:35;;;;;;;4.68;1.50;;;20.80;99.90;;;;;;4973218;28;20555;-78
2023/07/17 06:04:00;;;;;;;5.22;2.28;;;20.90;99.90;;;;;;4973369;28;20093;-79
2023/07/17 06:06:26;;;;;;;2.03;1.73;;;21.10;99.90;;;;;;4972833;28;20495;-78
2023/07/17 06:08:52;;;;;;;2.80;2.25;;;21.30;99.90;;;;;;4972036;28;20038;-78
2023/07/17 06:11:17;;;;;;;2.80;1.60;;;21.40;99.90;;;;;;4955836;28;20122;-78
2023/07/17 06:13:43;;;;;;;1.80;1.50;;;21.40;99.90;;;;;;4973405;28;20107;-79
2023/07/17 06:16:08;;;;;;;2.50;1.63;;;21.50;99.90;;;;;;4955615;28;20415;-78
2023/07/17 06:18:35;;;;;;;3.20;2.00;;;21.60;99.90;;;;;;4955603;28;20037;-79
2023/07/17 06:21:00;;;;;;;2.85;1.77;;;21.90;99.90;;;;;;4954936;28;20078;-79
2023/07/17 06:23:26;;;;;;;5.68;1.95;;;22.40;99.90;;;;;;4972661;28;20058;-78
2023/07/17 06:25:52;;;;;;;1.35;1.23;;;22.50;99.90;;;;;;4972816;28;20053;-78
2023/07/17 06:28:17;;;;;;;2.90;1.60;;;22.50;99.90;;;;;;4955321;28;20107;-79
2023/07/17 06:30:46;;;;;;;1.50;1.40;;;22.80;99.90;;;;;;4955583;28;20023;-79
2023/07/17 06:33:12;;;;;;;;;;;22.70;99.90;;;;;;4973327;28;20023;-78
2023/07/17 06:35:38;;;;;;;3.80;1.70;;;22.90;99.90;;;;;;4972413;28;19906;-78
2023/07/17 06:38:04;;;;;;;4.72;1.83;;;22.90;99.90;;;;;;4972794;28;20081;-79
2023/07/17 06:40:29;;;;;;;3.17;1.77;;;22.80;99.90;;;;;;4954943;28;20034;-79
2023/07/17 06:42:55;;;;;;;6.20;1.83;;;22.60;99.90;;;;;;4972532;28;20030;-77
2023/07/17 06:45:21;;;;;;;4.25;1.73;;;22.70;99.90;;;;;;4955111;28;20114;-78
2023/07/17 06:47:47;;;;;;;2.50;1.65;;;22.60;99.90;;;;;;4955107;28;20519;-79
2023/07/17 06:50:13;;;;;;;7.90;2.67;;;23.00;99.90;;;;;;4954640;28;20081;-78
2023/07/17 06:52:39;;;;;;;5.43;2.00;;;23.50;99.90;;;;;;4972364;28;20081;-79
2023/07/17 06:55:07;;;;;;;7.35;2.85;;;23.60;96.60;;;;;;4972338;28;20023;-78
2023/07/17 06:57:32;;;;;;;4.70;2.30;;;23.30;96.40;;;;;;4954683;28;20026;-78
2023/07/17 06:59:58;;;;;;;2.70;2.25;;;23.40;95.70;;;;;;4954549;28;20502;-78
2023/07/17 07:02:24;;;;;;;6.30;2.80;;;23.00;94.40;;;;;;4954831;28;20026;-78
2023/07/17 07:04:49;;;;;;;5.05;2.80;;;22.70;94.20;;;;;;4954589;28;20015;-78
2023/07/17 07:07:15;;;;;;;2.95;2.30;;;22.40;94.30;;;;;;4954332;28;20126;-78
2023/07/17 07:09:41;;;;;;;9.63;2.95;;;22.30;93.30;;;;;;4971969;28;20030;-78
2023/07/17 07:12:07;;;;;;;6.35;2.90;;;22.60;94.00;;;;;;4971917;28;20115;-78
2023/07/17 07:14:32;;;;;;;9.32;3.25;;;22.50;94.60;;;;;;4954363;28;20023;-78
2023/07/17 07:16:58;;;;;;;3.63;2.30;;;22.30;94.60;;;;;;4954293;28;20050;-79
2023/07/17 07:19:24;;;;;;;7.10;2.63;;;22.60;94.80;;;;;;4970733;28;20031;-78
2023/07/17 07:21:49;;;;;;;6.25;3.13;;;22.60;94.70;;;;;;4953321;28;20070;-77
2023/07/17 07:24:15;;;;;;;4.30;2.75;;;22.60;94.70;;;;;;4954341;28;20033;-78
2023/07/17 07:26:40;;;;;;;3.92;2.50;;;22.70;94.50;;;;;;4971763;28;20489;-78
2023/07/17 07:29:06;;;;;;;4.03;2.25;;;23.10;94.00;;;;;;4971846;28;20043;-78
2023/07/17 07:31:32;;;;;;;4.97;2.10;;;23.80;93.30;;;;;;4953906;28;20029;-78
2023/07/17 07:33:57;;;;;;;5.13;2.88;;;23.50;91.70;;;;;;4953876;28;20038;-79
2023/07/17 07:36:23;;;;;;;3.63;2.40;;;23.10;92.60;;;;;;4970950;28;20499;-78
2023/07/17 07:38:49;;;;;;;8.85;3.00;;;22.80;91.40;;;;;;4971479;28;20490;-78
2023/07/17 07:41:15;;;;;;;6.55;2.38;;;22.80;91.80;;;;;;4953945;28;20428;-78
2023/07/17 07:43:40;;;;;;;7.55;2.60;;;22.80;91.70;;;;;;4971309;28;20023;-78
2023/07/17 07:46:06;;;;;;;5.50;2.72;;;22.80;92.10;;;;;;4971391;28;20030;-79
2023/07/17 07:48:31;;;;;;;8.98;3.03;;;22.60;91.30;;;;;;4953651;28;20031;-78
2023/07/17 07:50:57;;;;;;;8.50;3.42;;;22.50;93.60;;;;;;4953524;28;20054;-79
2023/07/17 07:53:23;;;;;;;3.65;2.30;;;22.60;91.10;;;;;;4970940;28;20030;-78
2023/07/17 07:55:49;;;;;;;5.63;3.00;;;22.40;90.70;;;;;;4953764;28;20022;-79
2023/07/17 07:58:14;;;;;;;4.63;2.45;;;22.50;90.80;;;;;;4953822;28;20570;-78
2023/07/17 08:00:40;;;;;;;6.18;2.70;;;22.60;91.10;;;;;;4953347;28;20391;-78
2023/07/17 08:03:05;;;;;;;3.83;2.38;;;22.90;91.20;;;;;;4953568;28;20035;-78
2023/07/17 08:05:31;;;;;;;9.13;2.97;;;22.80;92.00;;;;;;4970613;28;20525;-78
2023/07/17 08:07:57;;;;;;;4.82;2.35;;;23.00;91.30;;;;;;4970866;28;20121;-79
2023/07/17 08:10:23;;;;;;;3.90;2.50;;;23.20;90.70;;;;;;4953309;28;20065;-78
2023/07/17 08:12:49;;;;;;;4.53;2.22;;;23.50;88.70;;;;;;4953463;28;20034;-78
2023/07/17 08:15:14;;;;;;;4.03;2.67;;;23.70;89.20;;;;;;4971110;28;20023;-78
2023/07/17 08:17:40;;;;;;;2.40;2.03;;;23.90;88.60;;;;;;4953400;28;20031;-78
2023/07/17 08:20:06;;;;;;;5.05;2.10;;;23.70;90.80;;;;;;4953129;28;20046;-78
2023/07/17 08:22:32;;;;;;;4.05;2.55;;;24.10;90.20;;;;;;4953215;28;20062;-78
2023/07/17 08:24:58;;;;;;;5.80;2.75;;;23.90;86.10;;;;;;4953422;28;20022;-78
2023/07/17 08:27:24;;;;;;;4.70;2.63;;;23.90;85.90;;;;;;4953033;28;20070;-78
2023/07/17 08:29:50;;;;;;;4.10;2.60;;;23.70;86.70;;;;;;4952615;28;20019;-79
2023/07/17 08:32:16;;;;;;;7.00;2.88;;;24.30;85.70;;;;;;4952747;28;20034;-79
2023/07/17 08:34:42;;;;;;;6.40;3.20;;;24.70;88.20;;;;;;4953013;28;20384;-78
2023/07/17 08:37:08;;;;;;;6.00;2.63;;;24.30;83.90;;;;;;4952954;28;20050;-78
2023/07/17 08:39:34;;;;;;;6.00;2.17;;;23.90;84.70;;;;;;4953079;28;20034;-77
2023/07/17 08:42:00;;;;;;;3.45;2.50;;;23.70;85.70;;;;;;4970479;28;20030;-78
2023/07/17 08:44:27;;;;;;;3.15;2.40;;;23.90;84.00;;;;;;4970392;28;20061;-78
2023/07/17 08:46:53;;;;;;;5.93;2.50;;;24.50;85.20;;;;;;4952691;28;20547;-78
2023/07/17 08:49:20;;;;;;;5.80;2.72;;;25.50;83.60;;;;;;4970152;28;20035;-78
2023/07/17 08:51:49;;;;;;;6.10;3.20;;;26.30;76.80;;;;;;4952616;28;20023;-78
2023/07/17 08:54:16;;;;;;;5.65;2.88;;;26.80;74.10;;;;;;4952911;28;20031;-78
2023/07/17 08:56:42;;;;;;;5.57;2.38;;;26.00;75.30;;;;;;4970486;28;20019;-78
2023/07/17 08:59:10;;;;;;;9.45;3.25;;;26.10;76.10;;;;;;4953012;28;20119;-78
2023/07/17 09:01:36;;;;;;;4.18;2.47;;;26.10;76.40;;;;;;4970152;28;20494;-78
2023/07/17 09:04:06;;;;;;;5.80;2.60;;;26.30;73.60;;;;;;4952863;28;20027;-78
2023/07/17 09:06:32;;;;;;;4.35;2.55;;;26.50;74.10;;;;;;4952144;28;20082;-78
2023/07/17 09:08:57;;;;;;;3.25;2.45;;;26.00;76.60;;;;;;4952255;28;20034;-78
2023/07/17 09:11:23;;;;;;;4.50;1.90;;;24.90;75.40;;;;;;4969924;28;20073;-78
2023/07/17 09:13:52;;;;;;;4.10;2.22;;;24.00;78.70;;;;;;4952897;28;20086;-78
2023/07/17 09:16:19;;;;;;;;;;;24.10;78.20;;;;;;4953240;28;20033;-78
2023/07/17 09:18:45;;;;;;;3.97;2.10;;;24.80;79.70;;;;;;4970141;28;20433;-78
2023/07/17 09:21:19;;;;;;;4.28;1.90;;;25.60;76.70;;;;;;4951904;28;20061;-78
2023/07/17 09:23:47;;;;;;;5.75;3.03;;;25.70;78.50;;;;;;4952455;28;20383;-78
2023/07/17 09:26:14;;;;;;;6.15;2.60;;;25.90;74.30;;;;;;4952667;28;20027;-78
2023/07/17 09:28:54;;;;;;;2.72;2.13;;;25.80;74.30;;;;;;4969765;28;20031;-78
2023/07/17 09:31:24;;;;;;;4.60;2.42;;;26.00;74.90;;;;;;4970013;28;20023;-78
2023/07/17 09:33:51;;;;;;;5.10;2.50;;;25.80;75.30;;;;;;4952545;28;20042;-78
2023/07/17 09:36:16;;;;;;;14.38;3.47;;;26.40;74.60;;;;;;4952122;28;20125;-78
2023/07/17 09:38:42;;;;;;;7.90;2.22;;;26.80;73.30;;;;;;4969543;28;20058;-79
2023/07/17 09:41:19;;;;;;;12.88;2.70;;;26.90;73.10;;;;;;4969668;28;20081;-78
2023/07/17 09:43:52;;;;;;;7.18;2.72;;;26.70;74.00;;;;;;4953934;28;20082;-78
2023/07/17 09:46:18;;;;;;;6.93;2.85;;;27.10;74.60;;;;;;4955962;28;20382;-78
2023/07/17 09:48:44;;;;;;;5.20;2.05;;;27.10;72.80;;;;;;4955837;28;20038;-79
2023/07/17 09:51:11;;;;;;;6.95;2.60;;;27.70;70.60;;;;;;4973073;28;20027;-79
2023/07/17 09:53:37;;;;;;;9.80;2.88;;;27.70;70.70;;;;;;4955846;28;20065;-78
2023/07/17 09:56:04;;;;;;;4.20;1.67;;;27.30;69.50;;;;;;4973069;28;20026;-79
2023/07/17 09:58:31;;;;;;;4.72;1.98;;;26.30;72.90;;;;;;4955676;28;20386;-78
2023/07/17 10:00:58;;;;;;;3.63;2.28;;;25.30;73.10;;;;;;4955700;28;20023;-78
2023/07/17 10:03:25;;;;;;;3.90;2.47;;;25.50;75.20;;;;;;4955932;28;20053;-78
2023/07/17 10:05:53;;;;;;;3.28;1.90;;;26.10;74.00;;;;;;4972836;28;20023;-78
2023/07/17 10:08:20;;;;;;;5.82;2.20;;;25.80;71.70;;;;;;4955749;28;20030;-78
2023/07/17 10:10:45;;;;;;;5.93;2.30;;;25.90;72.60;;;;;;4955465;28;20480;-78
2023/07/17 10:13:12;;;;;;;4.28;2.15;;;26.20;72.70;;;;;;4955505;28;20076;-78
2023/07/17 10:15:38;;;;;;;4.10;2.03;;;26.90;70.70;;;;;;4972848;28;20077;-78
2023/07/17 10:18:09;;;;;;;4.40;2.67;;;27.00;69.90;;;;;;4955551;28;20182;-79
2023/07/17 10:20:37;;;;;;;4.25;2.25;;;27.00;73.50;;;;;;4955051;28;20071;-78
2023/07/17 10:23:03;;;;;;;7.35;2.13;;;26.00;70.10;;;;;;4955452;28;20423;-79
2023/07/17 10:25:28;;;;;;;5.03;1.98;;;25.80;71.40;;;;;;4955358;28;20041;-78
2023/07/17 10:28:04;;;;;;;3.05;2.17;;;26.00;71.90;;;;;;4955206;28;20492;-79
2023/07/17 10:30:33;;;;;;;4.63;2.50;;;25.80;72.60;;;;;;4972649;28;20022;-78
2023/07/17 10:33:09;;;;;;;7.07;2.90;;;25.70;74.50;;;;;;4955494;28;20041;-78
2023/07/17 10:35:46;;;;;;;4.43;1.60;;;25.40;72.40;;;;;;4954816;28;20027;-78
2023/07/17 10:38:14;;;;;;;2.88;2.25;;;26.00;73.70;;;;;;4972819;28;20468;-79
2023/07/17 10:40:40;;;;;;;5.57;2.75;;;26.80;70.40;;;;;;4955192;28;20081;-79
2023/07/17 10:43:17;;;;;;;3.92;2.00;;;26.50;70.80;;;;;;4954996;28;20126;-78
2023/07/17 10:45:44;;;;;;;4.55;1.88;;;26.20;73.60;;;;;;4972730;28;20019;-78
2023/07/17 10:48:11;;;;;;;3.42;2.33;;;26.20;72.90;;;;;;4972120;28;20038;-78
2023/07/17 10:50:38;;;;;;;4.65;2.15;;;26.70;72.20;;;;;;4954769;28;20034;-79
2023/07/17 10:53:05;;;;;;;5.85;1.88;;;27.20;70.10;;;;;;4954853;28;20395;-78
2023/07/17 10:55:32;;;;;;;4.40;1.92;;;27.30;70.30;;;;;;4954513;28;20030;-78
2023/07/17 10:57:59;;;;;;;4.45;2.80;;;27.60;68.90;;;;;;4954737;28;20027;-79
2023/07/17 11:00:25;;;;;;;4.55;1.92;;;27.20;71.40;;;;;;4972198;28;20019;-79
2023/07/17 11:02:51;;;;;;;5.03;2.95;;;26.80;72.30;;;;;;4954864;28;20514;-78
2023/07/17 11:05:17;;;;;;;5.30;2.72;;;27.40;73.70;;;;;;4954325;28;20031;-78
2023/07/17 11:07:43;;;;;;;5.05;2.25;;;27.90;68.60;;;;;;4954470;28;20467;-78
2023/07/17 11:10:12;;;;;;;8.93;2.60;;;28.10;66.80;;;;;;4971982;28;20467;-79
2023/07/17 11:12:39;;;;;;;3.67;2.22;;;27.90;68.60;;;;;;4971489;28;20041;-78
2023/07/17 11:15:16;;;;;;;4.72;2.05;;;27.80;68.20;;;;;;4972072;28;20109;-78
2023/07/17 11:17:41;;;;;;;4.20;2.38;;;27.50;68.40;;;;;;4972052;28;20498;-79
2023/07/17 11:20:07;;;;;;;7.30;3.03;;;27.20;69.00;;;;;;4954016;28;20042;-79
2023/07/17 11:22:33;;;;;;;3.15;1.98;;;26.90;68.90;;;;;;4954358;28;20074;-79
2023/07/17 11:24:59;;;;;;;5.72;2.10;;;27.10;71.60;;;;;;4971872;28;20497;-78
2023/07/17 11:27:25;;;;;;;3.83;2.00;;;27.10;67.90;;;;;;4971358;28;20105;-78
2023/07/17 11:29:51;;;;;;;7.80;2.47;;;27.40;67.40;;;;;;4954092;28;20027;-79
2023/07/17 11:32:19;;;;;;;3.22;2.03;;;27.10;69.60;;;;;;4954041;28;20031;-79
2023/07/17 11:34:45;;;;;;;5.22;2.58;;;27.10;67.50;;;;;;4953772;28;20081;-78
2023/07/17 11:37:34;;;;;;;5.95;2.03;;;26.90;70.00;;;;;;4971156;28;20039;-78
2023/07/17 11:40:05;;;;;;;4.55;2.55;;;27.00;70.10;;;;;;4954084;28;20119;-78
2023/07/17 11:43:03;;;;;;;5.25;2.88;;;26.50;69.40;;;;;;4971298;28;20103;-78
2023/07/17 11:45:29;;;;;;;3.83;2.28;;;25.90;70.40;;;;;;4927652;28;20043;-79
2023/07/17 11:47:56;;;;;;;2.20;2.00;;;26.20;71.20;;;;;;4953695;28;20042;-79
2023/07/17 11:50:26;;;;;;;2.25;1.95;;;27.10;70.20;;;;;;4970792;28;20144;-78
2023/07/17 11:53:11;;;;;;;4.43;2.25;;;27.50;70.00;;;;;;4953628;28;20080;-78
2023/07/17 11:55:38;;;;;;;7.72;2.25;;;27.80;67.70;;;;;;4953739;28;20423;-78
2023/07/17 11:58:25;;;;;;;4.70;3.28;;;27.20;69.30;;;;;;4953728;28;20081;-79
2023/07/17 12:00:54;;;;;;;6.60;2.75;;;27.00;68.20;;;;;;4953581;28;20161;-78
2023/07/17 12:03:20;;;;;;;8.32;3.10;;;26.40;69.00;;;;;;4953633;28;20202;-78
2023/07/17 12:05:46;;;;;;;2.65;2.22;;;26.60;69.20;;;;;;4970076;28;20076;-78
2023/07/17 12:08:12;;;;;;;7.20;2.88;;;27.00;70.50;;;;;;4971268;28;20031;-79
2023/07/17 12:10:38;;;;;;;5.72;2.17;;;27.10;68.70;;;;;;4953829;28;20042;-78
2023/07/17 12:13:05;;;;;;;4.13;2.80;;;27.20;69.00;;;;;;4970462;28;20141;-78
2023/07/17 12:15:31;;;;;;;5.25;2.45;;;27.40;68.40;;;;;;4971019;28;20034;-78
2023/07/17 12:17:57;;;;;;;6.47;2.55;;;27.70;67.00;;;;;;4970725;28;20238;-79
2023/07/17 12:20:24;;;;;;;3.38;2.38;;;27.80;66.80;;;;;;4970134;28;20027;-78
2023/07/17 12:22:52;;;;;;;3.95;2.28;;;28.00;66.10;;;;;;4970491;28;20034;-79
2023/07/17 12:25:18;;;;;;;4.63;1.85;;;28.10;69.10;;;;;;4953305;28;20117;-78
2023/07/17 12:27:44;;;;;;;4.82;2.00;;;28.30;69.20;;;;;;4953183;28;20066;-78
2023/07/17 12:30:11;;;;;;;3.63;2.00;;;27.60;66.90;;;;;;4970757;28;20019;-78
2023/07/17 12:32:38;;;;;;;4.55;2.22;;;27.20;68.70;;;;;;4953100;28;20034;-78
2023/07/17 12:35:05;;;;;;;4.75;2.00;;;26.50;71.20;;;;;;4970340;28;20019;-79
2023/07/17 12:37:31;;;;;;;6.25;2.88;;;26.80;70.70;;;;;;4953024;28;20306;-78
2023/07/17 12:39:57;;;;;;;2.42;2.00;;;26.60;67.80;;;;;;4953181;28;20287;-78
2023/07/17 12:42:22;;;;;;;2.60;2.40;;;26.50;68.30;;;;;;4970524;28;20506;-78
2023/07/17 12:44:48;;;;;;;3.92;2.83;;;26.80;70.10;;;;;;4953089;28;20143;-78